Amelia, West Virginia
Current Conditions -  °F | °C
As of 1:54 PM on Thursday 18 Dec 2014 (Local Time) from KCRW Reporting Station
Overcast Overcast  
Wind Chill: 27°   Ceiling: 2400
Heat Index: 32°   Visibility: 10mi
Dew Point: 22°   Wind: 5mph
Humidity: 66%   Direction: 270°W
Pressure: 30.19"   Gusts: NA
Location:  38.2755°N, 81.3011°W
Report Text: KCRW 181854Z 27004KT 10SM OVC024 00/M06 A3019 RMK AO2 SLP231 T00001056
Loading
Personal Weather Stations






























Interactive Weather Map New forecast layout! Learn more

10-Day Weather Forecast

Advertisements
Track Severe Weather on mobile